sensor_id;sensor_type;location;lat;lon;timestamp;temperature;humidity
75489;HTU21D;64069;46.396;48.102;2023-12-20T00:01:50;3.17;103.66
75489;HTU21D;64069;46.396;48.102;2023-12-20T00:04:16;3.14;103.66
75489;HTU21D;64069;46.396;48.102;2023-12-20T00:06:42;3.15;103.68
75489;HTU21D;64069;46.396;48.102;2023-12-20T00:09:08;3.15;103.70
75489;HTU21D;64069;46.396;48.102;2023-12-20T00:11:34;3.17;103.71
75489;HTU21D;64069;46.396;48.102;2023-12-20T00:14:00;3.19;103.69
75489;HTU21D;64069;46.396;48.102;2023-12-20T00:16:26;3.20;103.67
75489;HTU21D;64069;46.396;48.102;2023-12-20T00:18:52;3.20;103.66
75489;HTU21D;64069;46.396;48.102;2023-12-20T00:21:18;3.23;103.64
75489;HTU21D;64069;46.396;48.102;2023-12-20T00:23:44;3.26;103.63
75489;HTU21D;64069;46.396;48.102;2023-12-20T00:26:10;3.26;103.62
75489;HTU21D;64069;46.396;48.102;2023-12-20T00:28:36;3.30;103.61
75489;HTU21D;64069;46.396;48.102;2023-12-20T00:31:02;3.30;103.59
75489;HTU21D;64069;46.396;48.102;2023-12-20T00:33:28;3.32;103.56
75489;HTU21D;64069;46.396;48.102;2023-12-20T00:35:54;3.31;103.54
75489;HTU21D;64069;46.396;48.102;2023-12-20T00:38:20;3.27;103.52
75489;HTU21D;64069;46.396;48.102;2023-12-20T00:40:46;3.25;103.57
75489;HTU21D;64069;46.396;48.102;2023-12-20T00:43:12;3.23;103.60
75489;HTU21D;64069;46.396;48.102;2023-12-20T00:45:38;3.20;103.63
75489;HTU21D;64069;46.396;48.102;2023-12-20T00:48:05;3.20;103.68
75489;HTU21D;64069;46.396;48.102;2023-12-20T00:50:31;3.18;103.72
75489;HTU21D;64069;46.396;48.102;2023-12-20T00:52:57;3.18;103.72
75489;HTU21D;64069;46.396;48.102;2023-12-20T00:55:23;3.17;103.74
75489;HTU21D;64069;46.396;48.102;2023-12-20T00:57:49;3.17;103.74
75489;HTU21D;64069;46.396;48.102;2023-12-20T01:00:15;3.17;103.75
75489;HTU21D;64069;46.396;48.102;2023-12-20T01:02:41;3.16;103.74
75489;HTU21D;64069;46.396;48.102;2023-12-20T01:05:07;3.16;103.73
75489;HTU21D;64069;46.396;48.102;2023-12-20T01:07:35;3.14;103.73
75489;HTU21D;64069;46.396;48.102;2023-12-20T01:10:01;3.13;103.75
75489;HTU21D;64069;46.396;48.102;2023-12-20T01:12:27;3.10;103.73
75489;HTU21D;64069;46.396;48.102;2023-12-20T01:14:53;3.03;103.73
75489;HTU21D;64069;46.396;48.102;2023-12-20T01:17:19;2.98;103.79
75489;HTU21D;64069;46.396;48.102;2023-12-20T01:19:45;2.94;103.83
75489;HTU21D;64069;46.396;48.102;2023-12-20T01:22:11;2.87;103.89
75489;HTU21D;64069;46.396;48.102;2023-12-20T01:24:37;2.82;103.96
75489;HTU21D;64069;46.396;48.102;2023-12-20T01:27:03;2.82;104.05
75489;HTU21D;64069;46.396;48.102;2023-12-20T01:29:29;2.80;104.08
75489;HTU21D;64069;46.396;48.102;2023-12-20T01:31:55;2.79;104.11
75489;HTU21D;64069;46.396;48.102;2023-12-20T01:34:20;2.79;104.09
75489;HTU21D;64069;46.396;48.102;2023-12-20T01:36:47;2.74;104.08
75489;HTU21D;64069;46.396;48.102;2023-12-20T01:39:12;2.71;104.08
75489;HTU21D;64069;46.396;48.102;2023-12-20T01:41:39;2.69;104.08
75489;HTU21D;64069;46.396;48.102;2023-12-20T01:44:05;2.68;104.09
75489;HTU21D;64069;46.396;48.102;2023-12-20T01:46:31;2.66;104.08
75489;HTU21D;64069;46.396;48.102;2023-12-20T01:48:57;2.65;104.08
75489;HTU21D;64069;46.396;48.102;2023-12-20T01:51:23;2.62;104.05
75489;HTU21D;64069;46.396;48.102;2023-12-20T01:53:55;2.62;104.04
75489;HTU21D;64069;46.396;48.102;2023-12-20T01:56:23;2.60;104.04
75489;HTU21D;64069;46.396;48.102;2023-12-20T01:58:49;2.61;104.04
75489;HTU21D;64069;46.396;48.102;2023-12-20T02:01:16;2.62;104.02
75489;HTU21D;64069;46.396;48.102;2023-12-20T02:03:42;2.62;103.99
75489;HTU21D;64069;46.396;48.102;2023-12-20T02:06:09;2.62;103.98
75489;HTU21D;64069;46.396;48.102;2023-12-20T02:08:36;2.65;103.97
75489;HTU21D;64069;46.396;48.102;2023-12-20T02:11:02;2.64;103.92
75489;HTU21D;64069;46.396;48.102;2023-12-20T02:13:28;2.64;103.91
75489;HTU21D;64069;46.396;48.102;2023-12-20T02:15:57;2.61;103.89
75489;HTU21D;64069;46.396;48.102;2023-12-20T02:18:23;2.62;103.91
75489;HTU21D;64069;46.396;48.102;2023-12-20T02:20:49;2.60;103.91
75489;HTU21D;64069;46.396;48.102;2023-12-20T02:23:15;2.57;103.89
75489;HTU21D;64069;46.396;48.102;2023-12-20T02:25:41;2.54;103.89
75489;HTU21D;64069;46.396;48.102;2023-12-20T02:28:07;2.52;103.89
75489;HTU21D;64069;46.396;48.102;2023-12-20T02:30:33;2.49;103.92
75489;HTU21D;64069;46.396;48.102;2023-12-20T02:33:00;2.45;103.93
75489;HTU21D;64069;46.396;48.102;2023-12-20T02:35:26;2.40;103.95
75489;HTU21D;64069;46.396;48.102;2023-12-20T02:37:52;2.38;103.95
75489;HTU21D;64069;46.396;48.102;2023-12-20T02:40:18;2.32;103.99
75489;HTU21D;64069;46.396;48.102;2023-12-20T02:42:44;2.29;104.02
75489;HTU21D;64069;46.396;48.102;2023-12-20T02:45:10;2.24;104.05
75489;HTU21D;64069;46.396;48.102;2023-12-20T02:47:36;2.20;104.08
75489;HTU21D;64069;46.396;48.102;2023-12-20T02:50:02;2.14;104.12
75489;HTU21D;64069;46.396;48.102;2023-12-20T02:52:29;2.10;104.15
75489;HTU21D;64069;46.396;48.102;2023-12-20T02:54:55;2.09;104.24
75489;HTU21D;64069;46.396;48.102;2023-12-20T02:57:21;2.12;104.32
75489;HTU21D;64069;46.396;48.102;2023-12-20T02:59:47;2.15;104.31
75489;HTU21D;64069;46.396;48.102;2023-12-20T03:02:13;2.16;104.28
75489;HTU21D;64069;46.396;48.102;2023-12-20T03:04:43;2.17;104.24
75489;HTU21D;64069;46.396;48.102;2023-12-20T03:07:09;2.15;104.21
75489;HTU21D;64069;46.396;48.102;2023-12-20T03:09:35;2.12;104.19
75489;HTU21D;64069;46.396;48.102;2023-12-20T03:12:01;2.07;104.20
75489;HTU21D;64069;46.396;48.102;2023-12-20T03:14:27;2.05;104.24
75489;HTU21D;64069;46.396;48.102;2023-12-20T03:16:53;2.00;104.29
75489;HTU21D;64069;46.396;48.102;2023-12-20T03:19:19;1.96;104.32
75489;HTU21D;64069;46.396;48.102;2023-12-20T03:21:45;1.96;104.38
75489;HTU21D;64069;46.396;48.102;2023-12-20T03:24:11;1.94;104.43
75489;HTU21D;64069;46.396;48.102;2023-12-20T03:26:37;1.92;104.44
75489;HTU21D;64069;46.396;48.102;2023-12-20T03:29:03;1.92;104.47
75489;HTU21D;64069;46.396;48.102;2023-12-20T03:31:29;1.96;104.52
75489;HTU21D;64069;46.396;48.102;2023-12-20T03:33:55;2.02;104.50
75489;HTU21D;64069;46.396;48.102;2023-12-20T03:36:21;2.06;104.46
75489;HTU21D;64069;46.396;48.102;2023-12-20T03:38:47;2.07;104.37
75489;HTU21D;64069;46.396;48.102;2023-12-20T03:41:13;2.06;104.33
75489;HTU21D;64069;46.396;48.102;2023-12-20T03:43:39;2.05;104.32
75489;HTU21D;64069;46.396;48.102;2023-12-20T03:46:05;2.08;104.32
75489;HTU21D;64069;46.396;48.102;2023-12-20T03:48:33;2.13;104.32
75489;HTU21D;64069;46.396;48.102;2023-12-20T03:50:59;2.16;104.27
75489;HTU21D;64069;46.396;48.102;2023-12-20T03:53:25;2.17;104.24
75489;HTU21D;64069;46.396;48.102;2023-12-20T03:55:51;2.19;104.21
75489;HTU21D;64069;46.396;48.102;2023-12-20T03:58:17;2.16;104.19
75489;HTU21D;64069;46.396;48.102;2023-12-20T04:00:43;2.16;104.18
75489;HTU21D;64069;46.396;48.102;2023-12-20T04:03:09;2.12;104.20
75489;HTU21D;64069;46.396;48.102;2023-12-20T04:05:38;2.10;104.21
75489;HTU21D;64069;46.396;48.102;2023-12-20T04:08:04;2.05;104.27
75489;HTU21D;64069;46.396;48.102;2023-12-20T04:10:31;2.03;104.34
75489;HTU21D;64069;46.396;48.102;2023-12-20T04:12:57;1.98;104.42
75489;HTU21D;64069;46.396;48.102;2023-12-20T04:15:23;1.98;104.51
75489;HTU21D;64069;46.396;48.102;2023-12-20T04:17:49;2.00;104.60
75489;HTU21D;64069;46.396;48.102;2023-12-20T04:20:15;2.01;104.62
75489;HTU21D;64069;46.396;48.102;2023-12-20T04:22:41;2.02;104.60
75489;HTU21D;64069;46.396;48.102;2023-12-20T04:25:08;2.01;104.62
75489;HTU21D;64069;46.396;48.102;2023-12-20T04:27:34;2.01;104.64
75489;HTU21D;64069;46.396;48.102;2023-12-20T04:30:00;2.01;104.63
75489;HTU21D;64069;46.396;48.102;2023-12-20T04:32:26;1.99;104.63
75489;HTU21D;64069;46.396;48.102;2023-12-20T04:34:52;1.96;104.64
75489;HTU21D;64069;46.396;48.102;2023-12-20T04:37:18;1.92;104.66
75489;HTU21D;64069;46.396;48.102;2023-12-20T04:39:44;1.90;104.70
75489;HTU21D;64069;46.396;48.102;2023-12-20T04:42:10;1.90;104.76
75489;HTU21D;64069;46.396;48.102;2023-12-20T04:44:36;1.90;104.78
75489;HTU21D;64069;46.396;48.102;2023-12-20T04:47:02;1.91;104.80
75489;HTU21D;64069;46.396;48.102;2023-12-20T04:49:28;1.92;104.82
75489;HTU21D;64069;46.396;48.102;2023-12-20T04:51:54;1.97;104.85
75489;HTU21D;64069;46.396;48.102;2023-12-20T04:54:21;2.05;104.85
75489;HTU21D;64069;46.396;48.102;2023-12-20T04:56:47;2.12;104.82
75489;HTU21D;64069;46.396;48.102;2023-12-20T04:59:13;2.21;104.79
75489;HTU21D;64069;46.396;48.102;2023-12-20T05:01:39;2.31;104.79
75489;HTU21D;64069;46.396;48.102;2023-12-20T05:04:05;2.42;104.76
75489;HTU21D;64069;46.396;48.102;2023-12-20T05:06:31;2.59;104.71
75489;HTU21D;64069;46.396;48.102;2023-12-20T05:08:57;2.70;104.61
75489;HTU21D;64069;46.396;48.102;2023-12-20T05:11:23;2.83;104.55
75489;HTU21D;64069;46.396;48.102;2023-12-20T05:13:49;2.88;104.46
75489;HTU21D;64069;46.396;48.102;2023-12-20T05:16:15;2.87;104.36
75489;HTU21D;64069;46.396;48.102;2023-12-20T05:18:44;2.82;104.31
75489;HTU21D;64069;46.396;48.102;2023-12-20T05:21:10;2.74;104.35
75489;HTU21D;64069;46.396;48.102;2023-12-20T05:23:36;2.70;104.48
75489;HTU21D;64069;46.396;48.102;2023-12-20T05:26:02;2.69;104.58
75489;HTU21D;64069;46.396;48.102;2023-12-20T05:28:28;2.69;104.65
75489;HTU21D;64069;46.396;48.102;2023-12-20T05:30:55;2.68;104.73
75489;HTU21D;64069;46.396;48.102;2023-12-20T05:33:21;2.71;104.80
75489;HTU21D;64069;46.396;48.102;2023-12-20T05:35:47;2.73;104.83
75489;HTU21D;64069;46.396;48.102;2023-12-20T05:38:13;2.74;104.84
75489;HTU21D;64069;46.396;48.102;2023-12-20T05:40:39;2.75;104.86
75489;HTU21D;64069;46.396;48.102;2023-12-20T05:43:05;2.78;104.89
75489;HTU21D;64069;46.396;48.102;2023-12-20T05:45:30;2.78;104.89
75489;HTU21D;64069;46.396;48.102;2023-12-20T05:47:57;2.84;104.97
75489;HTU21D;64069;46.396;48.102;2023-12-20T05:50:24;2.93;104.97
75489;HTU21D;64069;46.396;48.102;2023-12-20T05:52:50;3.02;105.01
75489;HTU21D;64069;46.396;48.102;2023-12-20T05:55:16;3.10;104.93
75489;HTU21D;64069;46.396;48.102;2023-12-20T05:57:42;3.16;104.92
75489;HTU21D;64069;46.396;48.102;2023-12-20T06:00:09;3.21;104.88
75489;HTU21D;64069;46.396;48.102;2023-12-20T06:02:39;3.29;104.86
75489;HTU21D;64069;46.396;48.102;2023-12-20T06:05:06;3.33;104.83
75489;HTU21D;64069;46.396;48.102;2023-12-20T06:07:32;3.46;104.90
75489;HTU21D;64069;46.396;48.102;2023-12-20T06:09:58;3.65;104.90
75489;HTU21D;64069;46.396;48.102;2023-12-20T06:12:24;3.79;104.84
75489;HTU21D;64069;46.396;48.102;2023-12-20T06:14:50;3.95;104.79
75489;HTU21D;64069;46.396;48.102;2023-12-20T06:17:16;4.09;104.73
75489;HTU21D;64069;46.396;48.102;2023-12-20T06:19:42;4.24;104.71
75489;HTU21D;64069;46.396;48.102;2023-12-20T06:22:10;4.42;104.68
75489;HTU21D;64069;46.396;48.102;2023-12-20T06:24:36;4.54;104.62
75489;HTU21D;64069;46.396;48.102;2023-12-20T06:27:02;4.69;104.57
75489;HTU21D;64069;46.396;48.102;2023-12-20T06:29:28;4.79;104.54
75489;HTU21D;64069;46.396;48.102;2023-12-20T06:31:54;4.91;104.54
75489;HTU21D;64069;46.396;48.102;2023-12-20T06:34:21;4.96;104.52
75489;HTU21D;64069;46.396;48.102;2023-12-20T06:36:47;5.06;104.53
75489;HTU21D;64069;46.396;48.102;2023-12-20T06:39:13;5.18;104.56
75489;HTU21D;64069;46.396;48.102;2023-12-20T06:41:39;5.28;104.47
75489;HTU21D;64069;46.396;48.102;2023-12-20T06:44:05;5.31;104.37
75489;HTU21D;64069;46.396;48.102;2023-12-20T06:46:31;5.36;104.37
75489;HTU21D;64069;46.396;48.102;2023-12-20T06:48:57;5.40;104.33
75489;HTU21D;64069;46.396;48.102;2023-12-20T06:51:23;5.53;104.33
75489;HTU21D;64069;46.396;48.102;2023-12-20T06:53:54;5.65;104.22
75489;HTU21D;64069;46.396;48.102;2023-12-20T06:56:20;5.77;104.12
75489;HTU21D;64069;46.396;48.102;2023-12-20T06:58:46;5.85;104.02
75489;HTU21D;64069;46.396;48.102;2023-12-20T07:01:14;5.94;103.92
75489;HTU21D;64069;46.396;48.102;2023-12-20T07:03:40;6.06;103.88
75489;HTU21D;64069;46.396;48.102;2023-12-20T07:06:07;6.16;103.74
75489;HTU21D;64069;46.396;48.102;2023-12-20T07:08:33;6.17;103.54
75489;HTU21D;64069;46.396;48.102;2023-12-20T07:10:59;6.25;103.56
75489;HTU21D;64069;46.396;48.102;2023-12-20T07:13:26;6.35;103.45
75489;HTU21D;64069;46.396;48.102;2023-12-20T07:15:51;6.42;103.35
75489;HTU21D;64069;46.396;48.102;2023-12-20T07:18:21;6.51;103.26
75489;HTU21D;64069;46.396;48.102;2023-12-20T07:20:47;6.55;103.14
75489;HTU21D;64069;46.396;48.102;2023-12-20T07:23:13;6.59;103.03
75489;HTU21D;64069;46.396;48.102;2023-12-20T07:25:39;6.59;102.91
75489;HTU21D;64069;46.396;48.102;2023-12-20T07:28:05;6.66;102.92
75489;HTU21D;64069;46.396;48.102;2023-12-20T07:30:31;6.79;102.86
75489;HTU21D;64069;46.396;48.102;2023-12-20T07:32:58;6.88;102.73
75489;HTU21D;64069;46.396;48.102;2023-12-20T07:35:27;6.98;102.58
75489;HTU21D;64069;46.396;48.102;2023-12-20T07:37:53;7.01;102.44
75489;HTU21D;64069;46.396;48.102;2023-12-20T07:40:19;7.12;102.36
75489;HTU21D;64069;46.396;48.102;2023-12-20T07:42:45;7.23;102.18
75489;HTU21D;64069;46.396;48.102;2023-12-20T07:45:14;7.32;102.02
75489;HTU21D;64069;46.396;48.102;2023-12-20T07:47:40;7.40;101.83
75489;HTU21D;64069;46.396;48.102;2023-12-20T07:50:06;7.45;101.70
75489;HTU21D;64069;46.396;48.102;2023-12-20T07:52:36;7.53;101.59
75489;HTU21D;64069;46.396;48.102;2023-12-20T07:55:02;7.59;101.48
75489;HTU21D;64069;46.396;48.102;2023-12-20T07:57:30;7.63;101.32
75489;HTU21D;64069;46.396;48.102;2023-12-20T07:59:56;7.72;101.25
75489;HTU21D;64069;46.396;48.102;2023-12-20T08:02:23;7.83;101.11
75489;HTU21D;64069;46.396;48.102;2023-12-20T08:04:49;7.88;100.86
75489;HTU21D;64069;46.396;48.102;2023-12-20T08:07:16;7.91;100.74
75489;HTU21D;64069;46.396;48.102;2023-12-20T08:09:42;7.96;100.64
75489;HTU21D;64069;46.396;48.102;2023-12-20T08:12:10;7.94;100.46
75489;HTU21D;64069;46.396;48.102;2023-12-20T08:14:37;7.93;100.43
75489;HTU21D;64069;46.396;48.102;2023-12-20T08:17:03;7.94;100.33
75489;HTU21D;64069;46.396;48.102;2023-12-20T08:19:29;7.90;100.14
75489;HTU21D;64069;46.396;48.102;2023-12-20T08:21:55;7.86;100.10
75489;HTU21D;64069;46.396;48.102;2023-12-20T08:24:21;7.84;100.03
75489;HTU21D;64069;46.396;48.102;2023-12-20T08:26:47;7.84;99.95
75489;HTU21D;64069;46.396;48.102;2023-12-20T08:29:14;7.87;99.84
75489;HTU21D;64069;46.396;48.102;2023-12-20T08:31:40;7.91;99.72
75489;HTU21D;64069;46.396;48.102;2023-12-20T08:34:06;7.92;99.54
75489;HTU21D;64069;46.396;48.102;2023-12-20T08:36:32;7.97;99.43
75489;HTU21D;64069;46.396;48.102;2023-12-20T08:38:58;8.02;99.30
75489;HTU21D;64069;46.396;48.102;2023-12-20T08:41:26;8.05;99.18
75489;HTU21D;64069;46.396;48.102;2023-12-20T08:43:52;8.08;99.09
75489;HTU21D;64069;46.396;48.102;2023-12-20T08:46:19;8.13;99.03
75489;HTU21D;64069;46.396;48.102;2023-12-20T08:48:45;8.18;98.89
75489;HTU21D;64069;46.396;48.102;2023-12-20T08:51:11;8.18;98.74
75489;HTU21D;64069;46.396;48.102;2023-12-20T08:53:37;8.18;98.64
75489;HTU21D;64069;46.396;48.102;2023-12-20T08:56:06;8.18;98.51
75489;HTU21D;64069;46.396;48.102;2023-12-20T08:58:32;8.19;98.42
75489;HTU21D;64069;46.396;48.102;2023-12-20T09:00:59;8.21;98.30
75489;HTU21D;64069;46.396;48.102;2023-12-20T09:03:25;8.24;98.22
75489;HTU21D;64069;46.396;48.102;2023-12-20T09:05:51;8.28;98.03
75489;HTU21D;64069;46.396;48.102;2023-12-20T09:08:17;8.28;97.92
75489;HTU21D;64069;46.396;48.102;2023-12-20T09:10:43;8.29;97.85
75489;HTU21D;64069;46.396;48.102;2023-12-20T09:13:10;8.32;97.81
75489;HTU21D;64069;46.396;48.102;2023-12-20T09:15:36;8.35;97.74
75489;HTU21D;64069;46.396;48.102;2023-12-20T09:18:02;8.39;97.62
75489;HTU21D;64069;46.396;48.102;2023-12-20T09:20:29;8.42;97.55
75489;HTU21D;64069;46.396;48.102;2023-12-20T09:22:55;8.43;97.47
75489;HTU21D;64069;46.396;48.102;2023-12-20T09:25:21;8.43;97.40
75489;HTU21D;64069;46.396;48.102;2023-12-20T09:27:48;8.47;97.36
75489;HTU21D;64069;46.396;48.102;2023-12-20T09:30:14;8.48;97.29
75489;HTU21D;64069;46.396;48.102;2023-12-20T09:32:40;8.53;97.21
75489;HTU21D;64069;46.396;48.102;2023-12-20T09:35:07;8.56;97.07
75489;HTU21D;64069;46.396;48.102;2023-12-20T09:37:34;8.58;96.98
75489;HTU21D;64069;46.396;48.102;2023-12-20T09:40:00;8.58;96.90
75489;HTU21D;64069;46.396;48.102;2023-12-20T09:42:56;8.58;96.75
75489;HTU21D;64069;46.396;48.102;2023-12-20T09:45:22;8.63;96.77
75489;HTU21D;64069;46.396;48.102;2023-12-20T09:47:52;8.66;96.66
75489;HTU21D;64069;46.396;48.102;2023-12-20T09:50:21;8.74;96.60
75489;HTU21D;64069;46.396;48.102;2023-12-20T09:52:52;8.79;96.46
75489;HTU21D;64069;46.396;48.102;2023-12-20T09:55:19;8.85;96.44
75489;HTU21D;64069;46.396;48.102;2023-12-20T09:57:49;8.86;96.39
75489;HTU21D;64069;46.396;48.102;2023-12-20T10:00:15;8.86;96.36
75489;HTU21D;64069;46.396;48.102;2023-12-20T10:02:49;8.85;96.38
75489;HTU21D;64069;46.396;48.102;2023-12-20T10:05:17;8.86;96.38
75489;HTU21D;64069;46.396;48.102;2023-12-20T10:07:46;8.86;96.32
75489;HTU21D;64069;46.396;48.102;2023-12-20T10:10:15;8.85;96.29
75489;HTU21D;64069;46.396;48.102;2023-12-20T10:13:07;8.86;96.26
75489;HTU21D;64069;46.396;48.102;2023-12-20T10:15:37;8.86;96.23
75489;HTU21D;64069;46.396;48.102;2023-12-20T10:18:04;8.85;96.20
75489;HTU21D;64069;46.396;48.102;2023-12-20T10:20:31;8.85;96.08
75489;HTU21D;64069;46.396;48.102;2023-12-20T10:22:58;8.85;96.07
75489;HTU21D;64069;46.396;48.102;2023-12-20T10:25:29;8.83;96.07
75489;HTU21D;64069;46.396;48.102;2023-12-20T10:28:16;8.85;95.97
75489;HTU21D;64069;46.396;48.102;2023-12-20T10:30:53;8.87;95.93
75489;HTU21D;64069;46.396;48.102;2023-12-20T10:33:24;8.86;95.85
75489;HTU21D;64069;46.396;48.102;2023-12-20T10:35:53;8.87;95.86
75489;HTU21D;64069;46.396;48.102;2023-12-20T10:38:19;8.87;95.83
75489;HTU21D;64069;46.396;48.102;2023-12-20T10:40:46;8.88;95.81
75489;HTU21D;64069;46.396;48.102;2023-12-20T10:43:12;8.88;95.77
75489;HTU21D;64069;46.396;48.102;2023-12-20T10:45:42;8.87;95.78
75489;HTU21D;64069;46.396;48.102;2023-12-20T10:48:10;8.85;95.81
75489;HTU21D;64069;46.396;48.102;2023-12-20T10:50:38;8.82;95.84
75489;HTU21D;64069;46.396;48.102;2023-12-20T10:53:04;8.79;95.86
75489;HTU21D;64069;46.396;48.102;2023-12-20T10:55:30;8.76;95.92
75489;HTU21D;64069;46.396;48.102;2023-12-20T10:58:09;8.73;95.94
75489;HTU21D;64069;46.396;48.102;2023-12-20T11:00:39;8.72;95.97
75489;HTU21D;64069;46.396;48.102;2023-12-20T11:03:10;8.68;95.97
75489;HTU21D;64069;46.396;48.102;2023-12-20T11:06:00;8.64;95.97
75489;HTU21D;64069;46.396;48.102;2023-12-20T11:13:55;8.52;96.03
75489;HTU21D;64069;46.396;48.102;2023-12-20T11:16:22;8.47;96.07
75489;HTU21D;64069;46.396;48.102;2023-12-20T11:18:51;8.42;96.08
75489;HTU21D;64069;46.396;48.102;2023-12-20T11:21:17;8.41;96.12
75489;HTU21D;64069;46.396;48.102;2023-12-20T11:23:43;8.38;96.14
75489;HTU21D;64069;46.396;48.102;2023-12-20T11:26:09;8.35;96.15
75489;HTU21D;64069;46.396;48.102;2023-12-20T11:28:36;8.31;96.15
75489;HTU21D;64069;46.396;48.102;2023-12-20T11:31:02;8.27;96.21
75489;HTU21D;64069;46.396;48.102;2023-12-20T11:33:36;8.23;96.23
75489;HTU21D;64069;46.396;48.102;2023-12-20T11:36:06;8.20;96.27
75489;HTU21D;64069;46.396;48.102;2023-12-20T11:38:38;8.16;96.27
75489;HTU21D;64069;46.396;48.102;2023-12-20T11:41:07;8.12;96.30
75489;HTU21D;64069;46.396;48.102;2023-12-20T11:43:38;8.08;96.34
75489;HTU21D;64069;46.396;48.102;2023-12-20T11:46:08;8.03;96.41
75489;HTU21D;64069;46.396;48.102;2023-12-20T11:48:37;7.99;96.46
75489;HTU21D;64069;46.396;48.102;2023-12-20T11:51:13;7.96;96.51
75489;HTU21D;64069;46.396;48.102;2023-12-20T11:53:40;7.92;96.55
75489;HTU21D;64069;46.396;48.102;2023-12-20T11:56:08;7.88;96.60
75489;HTU21D;64069;46.396;48.102;2023-12-20T11:58:36;7.83;96.68
75489;HTU21D;64069;46.396;48.102;2023-12-20T12:01:02;7.79;96.74
75489;HTU21D;64069;46.396;48.102;2023-12-20T12:03:34;7.75;96.81
75489;HTU21D;64069;46.396;48.102;2023-12-20T12:06:00;7.70;96.85
75489;HTU21D;64069;46.396;48.102;2023-12-20T12:08:27;7.62;96.94
75489;HTU21D;64069;46.396;48.102;2023-12-20T12:10:53;7.54;97.05
75489;HTU21D;64069;46.396;48.102;2023-12-20T12:13:23;7.46;97.15
75489;HTU21D;64069;46.396;48.102;2023-12-20T12:15:54;7.40;97.25
75489;HTU21D;64069;46.396;48.102;2023-12-20T12:18:20;7.35;97.36
75489;HTU21D;64069;46.396;48.102;2023-12-20T12:20:46;7.39;97.37
75489;HTU21D;64069;46.396;48.102;2023-12-20T12:23:12;7.45;97.28
75489;HTU21D;64069;46.396;48.102;2023-12-20T12:25:38;7.50;97.06
75489;HTU21D;64069;46.396;48.102;2023-12-20T12:28:05;7.53;96.89
75489;HTU21D;64069;46.396;48.102;2023-12-20T12:30:32;7.56;96.79
75489;HTU21D;64069;46.396;48.102;2023-12-20T12:32:57;7.56;96.71
75489;HTU21D;64069;46.396;48.102;2023-12-20T12:35:24;7.56;96.68
75489;HTU21D;64069;46.396;48.102;2023-12-20T12:37:51;7.56;96.67
75489;HTU21D;64069;46.396;48.102;2023-12-20T12:40:17;7.53;96.66
75489;HTU21D;64069;46.396;48.102;2023-12-20T12:42:45;7.50;96.70
75489;HTU21D;64069;46.396;48.102;2023-12-20T12:45:11;7.49;96.75
75489;HTU21D;64069;46.396;48.102;2023-12-20T12:47:38;7.48;96.77
75489;HTU21D;64069;46.396;48.102;2023-12-20T12:50:06;7.46;96.78
75489;HTU21D;64069;46.396;48.102;2023-12-20T12:52:32;7.44;96.83
75489;HTU21D;64069;46.396;48.102;2023-12-20T12:54:58;7.42;96.90
75489;HTU21D;64069;46.396;48.102;2023-12-20T12:57:24;7.41;96.91
75489;HTU21D;64069;46.396;48.102;2023-12-20T12:59:51;7.38;96.95
75489;HTU21D;64069;46.396;48.102;2023-12-20T13:02:17;7.34;97.02
75489;HTU21D;64069;46.396;48.102;2023-12-20T13:04:46;7.27;97.11
75489;HTU21D;64069;46.396;48.102;2023-12-20T13:07:12;7.14;97.31
75489;HTU21D;64069;46.396;48.102;2023-12-20T13:09:42;7.01;97.55
75489;HTU21D;64069;46.396;48.102;2023-12-20T13:12:08;6.90;97.84
75489;HTU21D;64069;46.396;48.102;2023-12-20T13:14:35;6.82;98.03
75489;HTU21D;64069;46.396;48.102;2023-12-20T13:17:04;6.73;98.16
75489;HTU21D;64069;46.396;48.102;2023-12-20T13:19:30;6.63;98.30
75489;HTU21D;64069;46.396;48.102;2023-12-20T13:21:56;6.58;98.43
75489;HTU21D;64069;46.396;48.102;2023-12-20T13:24:27;6.51;98.47
75489;HTU21D;64069;46.396;48.102;2023-12-20T13:26:55;6.41;98.55
75489;HTU21D;64069;46.396;48.102;2023-12-20T13:29:21;6.34;98.68
75489;HTU21D;64069;46.396;48.102;2023-12-20T13:31:47;6.27;98.75
75489;HTU21D;64069;46.396;48.102;2023-12-20T13:34:13;6.19;98.80
75489;HTU21D;64069;46.396;48.102;2023-12-20T13:36:39;6.13;98.89
75489;HTU21D;64069;46.396;48.102;2023-12-20T13:39:05;6.08;98.92
75489;HTU21D;64069;46.396;48.102;2023-12-20T13:41:32;6.01;98.90
75489;HTU21D;64069;46.396;48.102;2023-12-20T13:43:58;5.92;98.93
75489;HTU21D;64069;46.396;48.102;2023-12-20T13:46:24;5.83;99.05
75489;HTU21D;64069;46.396;48.102;2023-12-20T13:48:50;5.77;99.11
75489;HTU21D;64069;46.396;48.102;2023-12-20T13:51:16;5.76;99.11
75489;HTU21D;64069;46.396;48.102;2023-12-20T13:53:42;5.72;99.03
75489;HTU21D;64069;46.396;48.102;2023-12-20T13:56:11;5.63;99.03
75489;HTU21D;64069;46.396;48.102;2023-12-20T13:58:37;5.66;99.13
75489;HTU21D;64069;46.396;48.102;2023-12-20T14:01:04;5.68;99.03
75489;HTU21D;64069;46.396;48.102;2023-12-20T14:03:30;5.72;98.97
75489;HTU21D;64069;46.396;48.102;2023-12-20T14:06:00;5.77;98.87
75489;HTU21D;64069;46.396;48.102;2023-12-20T14:08:27;5.80;98.77
75489;HTU21D;64069;46.396;48.102;2023-12-20T14:10:53;5.83;98.71
75489;HTU21D;64069;46.396;48.102;2023-12-20T14:13:19;5.85;98.64
75489;HTU21D;64069;46.396;48.102;2023-12-20T14:15:48;5.85;98.62
75489;HTU21D;64069;46.396;48.102;2023-12-20T14:18:14;5.83;98.64
75489;HTU21D;64069;46.396;48.102;2023-12-20T14:20:41;5.77;98.65
75489;HTU21D;64069;46.396;48.102;2023-12-20T14:23:08;5.65;98.78
75489;HTU21D;64069;46.396;48.102;2023-12-20T14:25:37;5.55;98.94
75489;HTU21D;64069;46.396;48.102;2023-12-20T14:28:04;5.41;99.09
75489;HTU21D;64069;46.396;48.102;2023-12-20T14:30:30;5.25;99.32
75489;HTU21D;64069;46.396;48.102;2023-12-20T14:32:56;5.10;99.58
75489;HTU21D;64069;46.396;48.102;2023-12-20T14:35:27;4.93;99.85
75489;HTU21D;64069;46.396;48.102;2023-12-20T14:37:53;4.79;100.10
75489;HTU21D;64069;46.396;48.102;2023-12-20T14:40:19;4.68;100.31
75489;HTU21D;64069;46.396;48.102;2023-12-20T14:42:45;4.59;100.41
75489;HTU21D;64069;46.396;48.102;2023-12-20T14:45:12;4.52;100.51
75489;HTU21D;64069;46.396;48.102;2023-12-20T14:47:45;4.45;100.61
75489;HTU21D;64069;46.396;48.102;2023-12-20T14:50:13;4.41;100.61
75489;HTU21D;64069;46.396;48.102;2023-12-20T14:52:44;4.33;100.64
75489;HTU21D;64069;46.396;48.102;2023-12-20T14:55:11;4.28;100.69
75489;HTU21D;64069;46.396;48.102;2023-12-20T14:57:37;4.24;100.67
75489;HTU21D;64069;46.396;48.102;2023-12-20T15:00:05;4.22;100.68
75489;HTU21D;64069;46.396;48.102;2023-12-20T15:02:35;4.26;100.67
75489;HTU21D;64069;46.396;48.102;2023-12-20T15:05:01;4.34;100.63
75489;HTU21D;64069;46.396;48.102;2023-12-20T15:07:28;4.47;100.48
75489;HTU21D;64069;46.396;48.102;2023-12-20T15:09:54;4.57;100.24
75489;HTU21D;64069;46.396;48.102;2023-12-20T15:12:20;4.66;100.10